Time;durP1;ratioP1;P1;durP2;ratioP2;P2;SDS_P1;SDS_P2;PMS_P1;PMS_P2;Temp;Humidity;BMP_temperature;BMP_pressure;BME280_temperature;BME280_humidity;BME280_pressure;Samples;Min_cycle;Max_cycle;Signal;HPM_P1;HPM_P2
2022/06/12 00:00:25;;;;;;;11.40;2.33;;;15.80;99.90;;;;;;5024182;28;20258;-50
2022/06/12 00:02:51;;;;;;;9.65;2.10;;;15.70;99.90;;;;;;5025039;28;20047;-51
2022/06/12 00:05:19;;;;;;;13.82;2.63;;;15.80;99.90;;;;;;5029781;28;20037;-53
2022/06/12 00:07:45;;;;;;;11.85;2.38;;;15.70;99.90;;;;;;5030625;28;20248;-52
2022/06/12 00:10:12;;;;;;;12.77;2.40;;;15.70;99.90;;;;;;5024296;28;20138;-52
2022/06/12 00:12:41;;;;;;;11.52;2.10;;;15.70;99.90;;;;;;5034992;28;20550;-50
2022/06/12 00:15:07;;;;;;;8.98;2.28;;;15.60;99.90;;;;;;5029264;28;20044;-51
2022/06/12 00:17:33;;;;;;;11.52;2.30;;;15.60;99.90;;;;;;5028033;28;20052;-52
2022/06/12 00:19:59;;;;;;;12.02;2.08;;;15.60;99.90;;;;;;5029562;28;20045;-52
2022/06/12 00:22:24;;;;;;;12.15;2.63;;;15.60;99.90;;;;;;5022015;28;20116;-50
2022/06/12 00:24:51;;;;;;;8.63;1.77;;;15.50;99.90;;;;;;5030288;28;20045;-51
2022/06/12 00:27:17;;;;;;;10.07;2.22;;;15.50;99.90;;;;;;5028105;28;20041;-50
2022/06/12 00:29:44;;;;;;;10.43;1.98;;;15.50;99.90;;;;;;5030278;28;20033;-52
2022/06/12 00:32:16;;;;;;;8.15;1.90;;;15.40;99.90;;;;;;5014331;28;20049;-51
2022/06/12 00:34:52;;;;;;;8.52;1.75;;;15.40;99.90;;;;;;5026471;28;20037;-51
2022/06/12 00:37:21;;;;;;;7.22;1.77;;;15.40;99.90;;;;;;5027216;28;20223;-50
2022/06/12 00:39:49;;;;;;;9.57;2.15;;;15.30;99.90;;;;;;5023754;28;20529;-53
2022/06/12 00:42:38;;;;;;;6.85;1.33;;;15.30;99.90;;;;;;5029919;28;20511;-51
2022/06/12 00:45:25;;;;;;;8.55;1.75;;;15.30;99.90;;;;;;5027488;28;20479;-51
2022/06/12 00:47:55;;;;;;;8.75;1.65;;;15.20;99.90;;;;;;5032067;28;20152;-50
2022/06/12 00:50:21;;;;;;;8.15;1.63;;;15.20;99.90;;;;;;5028544;28;20037;-52
2022/06/12 00:52:50;;;;;;;7.75;1.55;;;15.20;99.90;;;;;;5027330;28;20585;-50
2022/06/12 00:55:24;;;;;;;6.53;1.50;;;15.20;99.90;;;;;;5029720;28;20056;-52
2022/06/12 00:57:58;;;;;;;6.60;1.40;;;15.10;99.90;;;;;;5027739;28;20444;-50
2022/06/12 01:00:23;;;;;;;7.97;1.40;;;15.10;99.90;;;;;;5029124;28;20090;-51
2022/06/12 01:02:49;;;;;;;6.80;1.60;;;15.10;99.90;;;;;;5025474;28;20033;-50
2022/06/12 01:08:06;;;;;;;6.05;1.17;;;15.00;99.90;;;;;;5029205;28;20045;-52
2022/06/12 01:10:33;;;;;;;7.30;1.45;;;15.00;99.90;;;;;;5025266;28;20037;-54
2022/06/12 01:13:12;;;;;;;6.68;1.42;;;15.00;99.90;;;;;;5027836;28;20624;-51
2022/06/12 01:15:45;;;;;;;8.32;1.20;;;15.00;99.90;;;;;;5021378;28;20522;-52
2022/06/12 01:18:14;;;;;;;6.88;1.05;;;15.00;99.90;;;;;;5007995;28;20040;-50
2022/06/12 01:21:25;;;;;;;9.35;1.17;;;14.90;99.90;;;;;;5030381;28;20041;-52
2022/06/12 01:23:56;;;;;;;5.80;1.08;;;14.90;99.90;;;;;;5026938;28;20053;-51
2022/06/12 01:26:54;;;;;;;6.03;1.10;;;14.90;99.90;;;;;;5028587;28;20041;-50
2022/06/12 01:29:32;;;;;;;6.15;1.27;;;14.80;99.90;;;;;;5026244;28;20447;-53
2022/06/12 01:32:17;;;;;;;6.63;1.23;;;14.80;99.90;;;;;;5008254;28;20056;-52
2022/06/12 01:34:59;;;;;;;6.68;0.85;;;14.80;99.90;;;;;;5023849;28;20449;-51
2022/06/12 01:37:44;;;;;;;5.07;1.00;;;14.80;99.90;;;;;;5030982;28;20087;-52
2022/06/12 01:40:48;;;;;;;6.22;0.80;;;14.80;99.90;;;;;;5029414;28;20522;-52
2022/06/12 01:43:35;;;;;;;;;;;14.80;99.90;;;;;;5023707;28;20037;-52
2022/06/12 01:46:08;;;;;;;5.07;1.20;;;14.60;99.90;;;;;;5026018;28;19917;-50
2022/06/12 01:48:49;;;;;;;5.80;1.15;;;14.60;99.90;;;;;;5029049;28;20451;-52
2022/06/12 01:51:19;;;;;;;4.68;1.10;;;14.60;99.90;;;;;;5026614;28;20053;-51
2022/06/12 01:54:08;;;;;;;7.93;1.52;;;14.60;99.90;;;;;;5037289;28;20048;-52
2022/06/12 01:56:40;;;;;;;8.10;1.27;;;14.60;99.90;;;;;;5031059;28;20041;-50
2022/06/12 02:00:03;;;;;;;5.65;0.80;;;14.60;99.90;;;;;;5027367;28;20045;-49
2022/06/12 02:02:37;;;;;;;6.20;1.05;;;14.60;99.90;;;;;;4972083;28;20154;-51
2022/06/12 02:05:25;;;;;;;6.97;1.13;;;14.60;99.90;;;;;;4992073;28;20129;-50
2022/06/12 02:08:04;;;;;;;5.60;1.13;;;14.60;99.90;;;;;;5011862;28;20365;-50
2022/06/12 02:10:53;;;;;;;4.25;0.80;;;14.60;99.90;;;;;;5025892;28;20037;-50
2022/06/12 02:13:27;;;;;;;7.22;0.93;;;14.50;99.90;;;;;;5026836;28;20597;-51
2022/06/12 02:16:12;;;;;;;6.13;1.15;;;14.60;99.90;;;;;;5030483;28;20094;-50
2022/06/12 02:18:44;;;;;;;5.95;0.85;;;14.60;99.90;;;;;;5013052;28;20108;-51
2022/06/12 02:21:24;;;;;;;5.88;0.80;;;14.50;99.90;;;;;;5026416;28;20036;-50
2022/06/12 02:24:01;;;;;;;6.18;0.80;;;14.50;99.90;;;;;;5023555;28;20042;-51
2022/06/12 02:26:34;;;;;;;6.38;0.90;;;14.50;99.90;;;;;;5022044;28;20037;-51
2022/06/12 02:29:20;;;;;;;6.82;1.02;;;14.50;99.90;;;;;;5020681;28;20103;-50
2022/06/12 02:31:51;;;;;;;7.13;0.90;;;14.50;99.90;;;;;;5045011;28;20103;-51
2022/06/12 02:34:28;;;;;;;5.75;0.80;;;14.50;99.90;;;;;;5015428;28;20478;-51
2022/06/12 02:36:59;;;;;;;5.97;0.70;;;14.50;99.90;;;;;;5028526;28;20107;-51
2022/06/12 02:39:34;;;;;;;5.63;0.70;;;14.50;99.90;;;;;;5032376;28;20069;-51
2022/06/12 02:42:11;;;;;;;4.03;0.70;;;14.50;99.90;;;;;;5034509;28;20117;-53
2022/06/12 02:44:42;;;;;;;4.35;1.13;;;14.40;99.90;;;;;;5027533;28;20029;-50
2022/06/12 02:47:18;;;;;;;6.75;0.80;;;14.40;99.90;;;;;;5031829;28;20091;-50
2022/06/12 02:49:47;;;;;;;7.18;1.02;;;14.40;99.90;;;;;;5022009;28;20073;-51
2022/06/12 02:52:39;;;;;;;5.65;0.90;;;14.40;99.90;;;;;;5044017;28;20399;-53
2022/06/12 02:55:27;;;;;;;4.28;0.68;;;14.40;99.90;;;;;;5026319;28;20041;-51
2022/06/12 02:58:13;;;;;;;4.63;0.98;;;14.40;99.90;;;;;;5020572;28;20045;-50
2022/06/12 03:00:56;;;;;;;4.65;0.95;;;14.40;99.90;;;;;;5029545;28;20033;-54
2022/06/12 03:03:25;;;;;;;6.50;0.70;;;14.40;99.90;;;;;;5023714;28;20045;-50
2022/06/12 03:05:57;;;;;;;5.22;0.95;;;14.40;99.90;;;;;;5026547;28;20112;-51
2022/06/12 03:08:27;;;;;;;5.25;0.70;;;14.40;99.90;;;;;;5027221;28;20122;-50
2022/06/12 03:11:00;;;;;;;7.38;0.90;;;14.40;99.90;;;;;;5029278;28;20037;-50
2022/06/12 03:13:28;;;;;;;6.95;1.20;;;14.40;99.90;;;;;;5025067;28;20045;-49
2022/06/12 03:16:01;;;;;;;5.78;0.90;;;14.40;99.90;;;;;;5027743;28;20049;-50
2022/06/12 03:18:35;;;;;;;6.03;0.95;;;14.40;99.90;;;;;;5026266;28;20041;-51
2022/06/12 03:21:13;;;;;;;;;;;14.40;99.90;;;;;;5012175;28;20487;-52
2022/06/12 03:24:15;;;;;;;6.55;0.80;;;14.30;99.90;;;;;;5011196;28;19924;-51
2022/06/12 03:27:26;;;;;;;4.93;0.70;;;14.30;99.90;;;;;;5032050;28;20052;-52
2022/06/12 03:30:24;;;;;;;5.35;0.70;;;14.30;99.90;;;;;;5010784;28;20049;-50
2022/06/12 03:33:12;;;;;;;6.70;0.95;;;14.30;99.90;;;;;;5030586;28;20049;-51
2022/06/12 03:36:06;;;;;;;6.45;0.98;;;14.30;99.90;;;;;;5028329;28;20037;-52
2022/06/12 03:38:52;;;;;;;5.07;1.00;;;14.30;99.90;;;;;;5033410;28;20083;-48
2022/06/12 03:41:24;;;;;;;4.32;0.90;;;14.30;99.90;;;;;;5037222;28;20406;-50
2022/06/12 03:43:54;;;;;;;5.55;0.80;;;14.20;99.90;;;;;;5035324;28;20045;-50
2022/06/12 03:46:41;;;;;;;4.53;0.90;;;14.20;99.90;;;;;;5028465;28;20067;-50
2022/06/12 03:49:15;;;;;;;3.50;0.60;;;14.20;99.90;;;;;;5030611;28;20034;-50
2022/06/12 03:52:03;;;;;;;5.72;1.10;;;14.30;99.90;;;;;;5027686;28;20044;-51
2022/06/12 03:54:33;;;;;;;8.07;1.27;;;14.20;99.90;;;;;;5016762;28;20549;-50
2022/06/12 04:00:27;;;;;;;5.65;1.02;;;14.20;99.90;;;;;;5014067;28;20507;-50
2022/06/12 04:03:11;;;;;;;;;;;14.20;99.90;;;;;;5023264;28;20174;-52
2022/06/12 04:05:42;;;;;;;5.47;0.77;;;14.10;99.90;;;;;;5034613;28;19920;-50
2022/06/12 04:08:15;;;;;;;7.97;0.82;;;14.10;99.90;;;;;;5025492;28;20081;-52
2022/06/12 04:10:41;;;;;;;5.80;1.02;;;14.10;99.90;;;;;;5028679;28;20033;-51
2022/06/12 04:13:23;;;;;;;4.85;0.60;;;14.10;99.90;;;;;;5005902;28;20419;-50
2022/06/12 04:15:55;;;;;;;4.25;0.63;;;14.10;99.90;;;;;;5024309;28;20399;-50
2022/06/12 04:18:23;;;;;;;4.25;0.80;;;14.10;99.90;;;;;;5023795;28;20072;-51
2022/06/12 04:21:06;;;;;;;5.43;1.02;;;14.10;99.90;;;;;;5026760;28;20646;-50
2022/06/12 04:23:43;;;;;;;;;;;14.20;99.90;;;;;;5022004;28;20037;-51
2022/06/12 04:26:31;;;;;;;6.00;1.13;;;14.10;99.90;;;;;;5026982;28;20271;-51
2022/06/12 04:29:04;;;;;;;6.75;0.80;;;14.10;99.90;;;;;;5031068;28;20495;-51
2022/06/12 04:31:31;;;;;;;;;;;14.10;99.90;;;;;;5022127;28;20112;-51
2022/06/12 04:34:10;;;;;;;5.78;1.13;;;14.10;99.90;;;;;;5034973;28;20004;-53
2022/06/12 04:36:36;;;;;;;5.47;0.90;;;14.10;99.90;;;;;;5026912;28;20042;-51
2022/06/12 04:39:03;;;;;;;5.93;0.95;;;14.10;99.90;;;;;;5034301;28;20075;-53
2022/06/12 04:41:31;;;;;;;7.82;1.17;;;14.20;99.90;;;;;;5026203;28;20048;-50
2022/06/12 04:43:57;;;;;;;4.75;0.90;;;14.20;99.90;;;;;;5026176;28;20060;-50
2022/06/12 04:46:24;;;;;;;5.50;0.77;;;14.20;99.90;;;;;;5025349;28;20068;-52
2022/06/12 04:48:53;;;;;;;4.55;0.90;;;14.20;99.90;;;;;;5031784;28;20259;-50
2022/06/12 04:51:20;;;;;;;4.15;0.80;;;14.30;99.90;;;;;;5040972;28;20547;-50
2022/06/12 04:53:47;;;;;;;5.28;0.90;;;14.30;99.90;;;;;;5027389;28;20056;-51
2022/06/12 04:56:14;;;;;;;6.00;0.88;;;14.30;99.90;;;;;;5024014;28;20096;-49
2022/06/12 04:58:41;;;;;;;6.45;0.90;;;14.30;99.90;;;;;;5035392;28;20041;-51
2022/06/12 05:01:08;;;;;;;5.38;0.95;;;14.40;99.90;;;;;;5031053;28;20041;-51
2022/06/12 05:03:33;;;;;;;5.85;0.70;;;14.40;99.90;;;;;;5036360;28;20334;-51
2022/06/12 05:05:59;;;;;;;7.13;0.88;;;14.40;99.90;;;;;;5026097;28;20063;-50
2022/06/12 05:08:25;;;;;;;6.22;0.80;;;14.40;99.90;;;;;;5035000;28;20067;-49
2022/06/12 05:10:51;;;;;;;4.15;0.60;;;14.40;99.90;;;;;;5022056;28;20034;-49
2022/06/12 05:13:18;;;;;;;4.53;0.77;;;14.50;99.90;;;;;;5030667;28;20041;-50
2022/06/12 05:15:45;;;;;;;7.35;0.93;;;14.50;99.90;;;;;;5031357;28;20041;-49
2022/06/12 05:18:13;;;;;;;5.43;1.00;;;14.60;99.90;;;;;;5027402;28;20050;-49
2022/06/12 05:20:39;;;;;;;6.10;0.75;;;14.80;99.90;;;;;;5018564;28;20041;-47
2022/06/12 05:23:06;;;;;;;6.28;0.75;;;15.00;99.90;;;;;;5024395;28;20084;-49
2022/06/12 05:25:31;;;;;;;6.03;0.88;;;15.10;99.90;;;;;;5030304;28;20483;-48
2022/06/12 05:27:58;;;;;;;5.10;0.88;;;15.20;99.90;;;;;;5028967;28;20076;-50
2022/06/12 05:30:28;;;;;;;5.45;1.05;;;15.30;99.90;;;;;;5029403;28;20052;-48
2022/06/12 05:32:56;;;;;;;6.00;0.95;;;15.90;99.90;;;;;;5028760;28;20065;-49
2022/06/12 05:35:22;;;;;;;6.68;1.08;;;16.20;99.90;;;;;;5026968;28;20430;-48
2022/06/12 05:37:51;;;;;;;4.80;0.88;;;16.30;99.90;;;;;;5019126;28;20628;-53
2022/06/12 05:40:21;;;;;;;5.05;0.90;;;16.30;99.90;;;;;;5028197;28;20081;-49
2022/06/12 05:42:47;;;;;;;8.82;0.85;;;16.40;99.90;;;;;;5019434;28;20045;-49
2022/06/12 05:45:17;;;;;;;5.82;1.00;;;16.40;99.90;;;;;;5028164;28;20037;-50
2022/06/12 05:47:57;;;;;;;6.72;1.08;;;16.50;99.90;;;;;;5023111;28;20041;-48
2022/06/12 05:50:27;;;;;;;6.18;1.08;;;16.60;99.90;;;;;;5027642;28;20046;-48
2022/06/12 05:52:53;;;;;;;8.02;1.15;;;16.60;99.90;;;;;;5026343;28;20042;-48
2022/06/12 05:55:18;;;;;;;7.35;0.80;;;16.60;99.90;;;;;;5023850;28;20048;-49
2022/06/12 05:57:44;;;;;;;6.03;0.95;;;16.60;99.90;;;;;;5016779;28;20048;-49
2022/06/12 06:00:15;;;;;;;6.53;1.00;;;16.60;99.90;;;;;;5025462;28;20038;-49
2022/06/12 06:02:45;;;;;;;5.95;0.80;;;16.60;99.90;;;;;;5016913;28;20037;-49
2022/06/12 06:05:11;;;;;;;6.32;0.80;;;16.60;99.90;;;;;;5037570;28;20029;-48
2022/06/12 06:07:38;;;;;;;8.70;0.93;;;16.60;99.90;;;;;;5021117;28;20033;-48
2022/06/12 06:10:06;;;;;;;7.80;0.90;;;16.60;99.90;;;;;;5005352;28;20052;-49
2022/06/12 06:12:33;;;;;;;8.93;0.80;;;16.60;99.90;;;;;;5030146;28;20112;-50
2022/06/12 06:14:58;;;;;;;6.93;0.88;;;16.60;99.90;;;;;;5029002;28;20053;-53
2022/06/12 06:17:24;;;;;;;8.32;0.90;;;16.70;99.90;;;;;;5028132;28;20167;-54
2022/06/12 06:19:50;;;;;;;9.13;1.35;;;16.70;99.90;;;;;;5027521;28;20041;-53
2022/06/12 06:22:18;;;;;;;10.57;1.23;;;16.80;99.90;;;;;;5041884;28;20484;-55
2022/06/12 06:24:45;;;;;;;8.45;1.20;;;16.80;99.90;;;;;;4998710;28;20125;-54
2022/06/12 06:27:12;;;;;;;6.70;1.00;;;16.80;99.90;;;;;;5019817;28;20532;-54
2022/06/12 06:29:38;;;;;;;6.25;1.05;;;16.90;99.90;;;;;;5028838;28;20116;-55
2022/06/12 06:32:05;;;;;;;9.43;1.30;;;16.90;99.90;;;;;;5028821;28;20136;-57
2022/06/12 06:34:31;;;;;;;8.57;1.20;;;17.00;99.90;;;;;;5020977;28;20435;-54
2022/06/12 06:36:58;;;;;;;10.13;1.30;;;17.00;99.90;;;;;;5019160;28;20038;-55
2022/06/12 06:39:24;;;;;;;8.73;1.10;;;17.10;99.90;;;;;;5019891;28;20504;-54
2022/06/12 06:41:49;;;;;;;9.48;1.58;;;17.20;99.90;;;;;;5021984;28;20137;-54
2022/06/12 06:46:59;;;;;;;8.90;1.40;;;17.30;99.90;;;;;;5028704;28;20044;-54
2022/06/12 06:49:25;;;;;;;8.15;1.35;;;17.40;99.90;;;;;;5029826;28;20103;-55
2022/06/12 06:51:51;;;;;;;6.75;1.20;;;17.40;99.90;;;;;;5019159;28;20408;-54
2022/06/12 06:54:18;;;;;;;8.73;1.27;;;17.50;99.90;;;;;;5030209;28;20049;-54
2022/06/12 06:56:43;;;;;;;12.77;1.73;;;17.50;99.90;;;;;;5034543;28;20050;-57
2022/06/12 06:59:09;;;;;;;10.85;1.67;;;17.60;99.90;;;;;;5026539;28;20111;-56
2022/06/12 07:01:35;;;;;;;10.75;1.38;;;17.70;99.90;;;;;;5031053;28;20052;-56
2022/06/12 07:04:02;;;;;;;10.70;2.10;;;17.70;99.90;;;;;;5022478;28;20495;-54
2022/06/12 07:06:27;;;;;;;7.57;1.30;;;17.80;99.90;;;;;;5026978;28;20038;-51
2022/06/12 07:08:54;;;;;;;7.88;1.30;;;17.90;99.90;;;;;;5033167;28;20759;-52
2022/06/12 07:11:21;;;;;;;13.00;1.88;;;17.90;99.90;;;;;;5044582;28;20076;-53
2022/06/12 07:13:47;;;;;;;11.50;1.80;;;18.00;99.90;;;;;;5043969;28;20126;-51
2022/06/12 07:16:13;;;;;;;12.18;2.03;;;18.00;99.90;;;;;;5018983;28;20396;-51
2022/06/12 07:18:39;;;;;;;14.23;1.80;;;18.10;99.90;;;;;;5036683;28;20046;-54
2022/06/12 07:21:04;;;;;;;12.07;1.83;;;18.20;99.90;;;;;;5023232;28;20044;-53
2022/06/12 07:23:31;;;;;;;13.43;1.63;;;18.20;99.90;;;;;;5024782;28;20079;-51
2022/06/12 07:26:04;;;;;;;11.77;1.92;;;18.30;99.90;;;;;;5029325;28;20041;-52
2022/06/12 07:28:30;;;;;;;14.70;2.22;;;18.30;99.90;;;;;;5022814;28;20427;-53
2022/06/12 07:30:56;;;;;;;9.43;1.63;;;18.40;99.90;;;;;;5031767;28;20049;-53
2022/06/12 07:33:23;;;;;;;10.73;1.50;;;18.50;99.90;;;;;;5028278;28;20071;-54
2022/06/12 07:35:50;;;;;;;12.73;1.95;;;18.60;99.90;;;;;;5027745;28;20038;-53
2022/06/12 07:38:18;;;;;;;11.95;2.00;;;18.60;99.90;;;;;;5015285;28;20045;-54
2022/06/12 07:40:55;;;;;;;14.30;2.30;;;18.70;99.90;;;;;;5027850;28;20041;-49
2022/06/12 07:43:22;;;;;;;11.82;1.95;;;18.80;99.90;;;;;;5022099;28;20041;-53
2022/06/12 07:45:48;;;;;;;15.70;2.40;;;18.80;99.90;;;;;;5009727;28;20048;-53
2022/06/12 07:48:14;;;;;;;14.52;1.75;;;18.90;99.90;;;;;;5025581;28;20033;-52
2022/06/12 07:50:42;;;;;;;14.68;2.28;;;18.90;99.90;;;;;;5024269;28;20105;-53
2022/06/12 07:53:08;;;;;;;12.18;1.75;;;19.00;99.90;;;;;;5026550;28;20038;-53
2022/06/12 07:55:34;;;;;;;12.57;2.03;;;19.00;99.90;;;;;;5026908;28;20041;-50
2022/06/12 07:58:00;;;;;;;13.70;2.22;;;19.10;99.90;;;;;;5025369;28;20044;-52
2022/06/12 08:00:26;;;;;;;14.27;2.22;;;19.10;99.90;;;;;;5027527;28;20122;-50
2022/06/12 08:02:52;;;;;;;16.05;2.20;;;19.20;99.90;;;;;;5024120;28;20095;-51
2022/06/12 08:05:19;;;;;;;10.60;2.20;;;19.30;99.90;;;;;;5028319;28;20120;-52
2022/06/12 08:07:45;;;;;;;11.18;2.08;;;19.30;99.90;;;;;;5019324;28;20042;-52
2022/06/12 08:10:12;;;;;;;11.30;2.10;;;19.40;99.90;;;;;;5023885;28;20168;-51
2022/06/12 08:12:40;;;;;;;9.60;2.00;;;19.50;99.90;;;;;;5028366;28;20056;-53
2022/06/12 08:15:10;;;;;;;11.07;1.98;;;19.50;99.90;;;;;;5023843;28;20265;-52
2022/06/12 08:17:36;;;;;;;10.85;1.70;;;19.60;99.90;;;;;;5027251;28;20046;-50
2022/06/12 08:22:47;;;;;;;11.35;2.00;;;19.70;99.90;;;;;;5038775;28;20052;-52
2022/06/12 08:25:13;;;;;;;10.70;1.98;;;19.80;99.90;;;;;;5028414;28;20435;-48
2022/06/12 08:27:39;;;;;;;11.23;1.70;;;19.80;99.90;;;;;;5030041;28;20052;-49
2022/06/12 08:30:07;;;;;;;9.88;1.83;;;19.90;99.90;;;;;;5020200;28;20042;-49
2022/06/12 08:32:33;;;;;;;10.13;1.63;;;20.00;99.90;;;;;;5030816;28;20187;-49
2022/06/12 08:35:05;;;;;;;10.85;2.05;;;20.00;99.90;;;;;;5030081;28;20218;-50
2022/06/12 08:37:36;;;;;;;10.77;1.80;;;20.10;99.90;;;;;;5027593;28;20131;-49
2022/06/12 08:40:08;;;;;;;11.70;1.92;;;20.20;99.90;;;;;;5015766;28;20049;-50
2022/06/12 08:43:04;;;;;;;10.13;1.80;;;20.20;99.90;;;;;;5018190;28;20376;-52
2022/06/12 08:45:38;;;;;;;12.63;1.77;;;20.30;99.90;;;;;;5019797;28;20041;-52
2022/06/12 08:48:19;;;;;;;9.88;1.85;;;20.40;99.90;;;;;;5028312;28;20103;-48
2022/06/12 08:50:48;;;;;;;9.55;1.80;;;20.40;99.90;;;;;;5030358;28;20423;-49
2022/06/12 08:53:35;;;;;;;8.40;1.55;;;20.50;99.90;;;;;;5023840;28;20129;-50
2022/06/12 08:56:10;;;;;;;13.52;1.92;;;20.50;99.90;;;;;;5038381;28;20434;-48
2022/06/12 08:59:06;;;;;;;15.13;1.98;;;20.60;99.90;;;;;;5027864;28;20407;-48
2022/06/12 09:01:41;;;;;;;11.25;1.80;;;20.70;99.90;;;;;;5033421;28;20041;-50
2022/06/12 09:04:12;;;;;;;11.35;2.00;;;20.80;99.90;;;;;;5022022;28;20033;-50
2022/06/12 09:06:45;;;;;;;10.07;1.85;;;20.80;99.90;;;;;;5030095;28;20170;-48
2022/06/12 09:09:30;;;;;;;9.87;1.70;;;20.90;99.90;;;;;;5022989;28;20072;-48
2022/06/12 09:12:07;;;;;;;12.13;1.48;;;20.90;99.90;;;;;;5019845;28;20295;-51
2022/06/12 09:15:01;;;;;;;10.30;1.98;;;21.00;99.90;;;;;;5021050;28;20399;-52
2022/06/12 09:17:58;;;;;;;9.85;1.55;;;21.10;99.90;;;;;;5008910;28;20145;-49
2022/06/12 09:20:48;;;;;;;11.13;1.77;;;21.10;99.90;;;;;;5013648;28;20128;-50
2022/06/12 09:23:40;;;;;;;7.97;1.38;;;21.20;99.90;;;;;;4999460;28;20041;-50
2022/06/12 09:26:25;;;;;;;7.40;1.20;;;21.30;99.90;;;;;;4999040;28;20045;-53
2022/06/12 09:28:54;;;;;;;9.57;1.58;;;21.30;99.90;;;;;;5026617;28;20053;-52
2022/06/12 09:31:31;;;;;;;11.23;1.90;;;21.40;99.90;;;;;;5029064;28;20060;-52
2022/06/12 09:34:09;;;;;;;10.15;1.35;;;21.40;99.90;;;;;;5022101;28;20132;-55
2022/06/12 09:36:50;;;;;;;11.25;1.63;;;21.50;99.90;;;;;;5031510;28;20043;-53
2022/06/12 09:39:43;;;;;;;9.38;1.40;;;21.60;99.90;;;;;;5028916;28;20498;-53
2022/06/12 09:42:22;;;;;;;8.52;1.30;;;21.70;99.90;;;;;;5030177;28;20029;-56
2022/06/12 09:45:14;;;;;;;8.30;1.25;;;21.70;99.90;;;;;;5032966;28;20108;-54
2022/06/12 09:48:01;;;;;;;8.23;1.33;;;21.80;99.90;;;;;;5028480;28;20401;-56
2022/06/12 09:50:45;;;;;;;8.00;1.85;;;21.90;99.90;;;;;;5033598;28;20092;-56
2022/06/12 09:53:20;;;;;;;9.68;1.75;;;21.90;99.90;;;;;;5025034;28;20124;-55
2022/06/12 09:56:19;;;;;;;10.43;1.45;;;21.90;99.90;;;;;;5037123;28;20057;-55
2022/06/12 09:58:57;;;;;;;8.23;1.48;;;22.00;99.90;;;;;;5020392;28;20053;-55
2022/06/12 10:01:30;;;;;;;10.07;1.60;;;22.00;99.90;;;;;;5029849;28;20075;-55
2022/06/12 10:04:21;;;;;;;8.55;1.20;;;22.00;99.90;;;;;;5025957;28;20040;-55
2022/06/12 10:06:52;;;;;;;8.43;1.40;;;22.00;99.90;;;;;;5013135;28;20447;-56
2022/06/12 10:09:21;;;;;;;8.43;1.30;;;22.00;99.90;;;;;;5022732;28;20054;-56
2022/06/12 10:11:53;;;;;;;8.55;1.60;;;22.00;99.90;;;;;;5030745;28;20052;-56
2022/06/12 10:14:28;;;;;;;6.97;1.63;;;22.00;99.90;;;;;;5027222;28;20069;-55
2022/06/12 10:16:56;;;;;;;9.02;1.58;;;22.00;99.90;;;;;;5025449;28;20052;-55
2022/06/12 10:19:54;;;;;;;10.23;1.85;;;22.10;99.90;;;;;;5024591;28;20358;-55
2022/06/12 10:22:29;;;;;;;7.97;1.35;;;22.10;99.90;;;;;;5026934;28;20056;-57
2022/06/12 10:24:55;;;;;;;9.15;1.67;;;22.10;99.90;;;;;;5033515;28;20045;-56
2022/06/12 10:27:22;;;;;;;9.23;0.98;;;22.10;99.90;;;;;;5025173;28;20039;-56
2022/06/12 10:29:50;;;;;;;8.18;1.52;;;22.20;99.90;;;;;;5038392;28;20469;-55
2022/06/12 10:32:22;;;;;;;8.93;1.52;;;22.20;99.90;;;;;;5028594;28;20091;-56
2022/06/12 10:34:49;;;;;;;7.85;1.30;;;22.20;99.90;;;;;;5039545;28;20123;-56
2022/06/12 10:37:18;;;;;;;7.97;1.52;;;22.30;99.90;;;;;;5021941;28;20482;-57
2022/06/12 10:39:44;;;;;;;7.78;1.30;;;22.30;99.90;;;;;;5045399;28;20045;-56
2022/06/12 10:42:42;;;;;;;7.32;1.55;;;22.30;99.90;;;;;;5039314;28;20045;-56
2022/06/12 10:45:40;;;;;;;7.15;1.00;;;22.40;99.90;;;;;;5027545;28;20084;-56
2022/06/12 10:48:26;;;;;;;6.20;1.02;;;22.40;99.90;;;;;;5032440;28;20542;-57
2022/06/12 10:50:58;;;;;;;7.30;1.15;;;22.50;99.90;;;;;;5040004;28;20041;-57
2022/06/12 10:53:27;;;;;;;7.15;1.10;;;22.50;99.90;;;;;;5038256;28;20483;-56
2022/06/12 10:56:01;;;;;;;6.28;1.10;;;22.60;99.90;;;;;;5037677;28;20120;-56
2022/06/12 10:58:42;;;;;;;6.80;1.20;;;22.60;99.90;;;;;;5014969;28;20049;-53
2022/06/12 11:01:19;;;;;;;5.97;0.70;;;22.60;99.90;;;;;;5031829;28;20045;-52
2022/06/12 11:04:06;;;;;;;5.55;1.13;;;22.70;99.90;;;;;;5031937;28;20536;-52
2022/06/12 11:06:47;;;;;;;3.40;0.70;;;22.80;99.90;;;;;;5037270;28;20116;-52
2022/06/12 11:09:23;;;;;;;4.88;1.00;;;22.80;99.90;;;;;;5026157;28;20053;-50
2022/06/12 11:12:21;;;;;;;5.88;0.98;;;22.80;99.90;;;;;;5030321;28;20080;-54
2022/06/12 11:14:56;;;;;;;5.53;1.02;;;22.90;99.90;;;;;;5031934;28;20048;-52
2022/06/12 11:17:21;;;;;;;5.80;1.05;;;22.90;99.90;;;;;;5025284;28;20120;-51
2022/06/12 11:20:13;;;;;;;8.98;1.45;;;23.00;99.90;;;;;;5009310;28;20502;-50
2022/06/12 11:22:44;;;;;;;5.80;1.08;;;23.00;99.90;;;;;;5002445;28;20037;-52
2022/06/12 11:25:19;;;;;;;4.35;0.85;;;23.00;99.90;;;;;;5019727;28;20037;-52
2022/06/12 11:28:00;;;;;;;8.40;1.15;;;23.10;99.90;;;;;;5021006;28;20080;-51
2022/06/12 11:30:46;;;;;;;6.05;0.98;;;23.10;99.90;;;;;;5026903;28;20060;-52
2022/06/12 11:33:24;;;;;;;5.28;0.90;;;23.20;99.90;;;;;;5030128;28;20045;-54
2022/06/12 11:36:09;;;;;;;6.13;1.10;;;23.20;99.90;;;;;;5020912;28;20045;-52
2022/06/12 11:38:50;;;;;;;4.82;1.00;;;23.20;99.90;;;;;;5026262;28;20153;-50
2022/06/12 11:41:43;;;;;;;4.75;0.90;;;23.30;99.90;;;;;;5031274;28;20501;-54
2022/06/12 11:44:27;;;;;;;4.85;1.13;;;23.30;99.90;;;;;;5015130;28;20042;-53
2022/06/12 11:46:59;;;;;;;4.68;0.85;;;23.30;99.90;;;;;;5024499;28;20041;-53
2022/06/12 11:49:58;;;;;;;5.03;1.10;;;23.40;99.90;;;;;;5024823;28;20380;-53
2022/06/12 11:52:38;;;;;;;4.15;0.70;;;23.40;99.90;;;;;;5017340;28;20073;-53
2022/06/12 11:55:21;;;;;;;5.38;0.77;;;23.50;99.90;;;;;;5011130;28;20045;-49
2022/06/12 11:58:05;;;;;;;5.45;1.10;;;23.50;99.90;;;;;;5030111;28;20400;-52
2022/06/12 12:00:39;;;;;;;6.45;0.95;;;23.50;99.90;;;;;;5042384;28;20037;-53
2022/06/12 12:03:38;;;;;;;4.07;0.70;;;23.60;99.90;;;;;;5030584;28;20376;-54
2022/06/12 12:06:28;;;;;;;6.97;0.85;;;23.60;99.90;;;;;;5033844;28;20099;-51
2022/06/12 12:09:05;;;;;;;6.43;1.00;;;23.60;99.90;;;;;;5036187;28;20102;-53
2022/06/12 12:11:35;;;;;;;6.30;1.25;;;23.60;99.90;;;;;;5034761;28;20537;-53
2022/06/12 12:14:05;;;;;;;9.38;1.38;;;23.60;99.90;;;;;;5016873;28;20050;-55
2022/06/12 12:17:06;;;;;;;9.77;2.10;;;23.60;99.90;;;;;;5015021;28;20507;-52
2022/06/12 12:19:35;;;;;;;4.68;0.80;;;23.70;99.90;;;;;;4984989;28;20037;-56
2022/06/12 12:22:04;;;;;;;5.18;0.90;;;23.70;99.90;;;;;;5008785;28;20066;-54
2022/06/12 12:24:40;;;;;;;4.07;1.00;;;23.70;99.90;;;;;;5019426;28;20075;-51
2022/06/12 12:27:30;;;;;;;5.47;1.15;;;23.70;99.90;;;;;;5036638;28;20054;-54
2022/06/12 12:29:58;;;;;;;6.32;1.25;;;23.70;99.90;;;;;;5019763;28;20053;-54
2022/06/12 12:32:24;;;;;;;3.22;0.80;;;23.70;99.90;;;;;;5017154;28;20046;-53
2022/06/12 12:34:52;;;;;;;4.70;0.80;;;23.70;99.90;;;;;;5033561;28;20514;-54
2022/06/12 12:42:47;;;;;;;7.00;1.15;;;23.80;99.90;;;;;;5048958;28;20088;-52
2022/06/12 12:45:22;;;;;;;8.50;1.02;;;23.90;99.90;;;;;;5049056;28;20092;-57
2022/06/12 12:48:00;;;;;;;4.53;0.70;;;23.90;99.90;;;;;;5043200;28;20037;-57
2022/06/12 12:50:27;;;;;;;7.95;0.85;;;23.70;96.00;;;;;;5044866;28;20071;-53
2022/06/12 12:52:57;;;;;;;4.45;0.85;;;23.60;93.00;;;;;;5042852;28;20037;-57
2022/06/12 12:55:28;;;;;;;7.65;0.93;;;23.40;92.40;;;;;;5043513;28;20037;-55
2022/06/12 12:57:56;;;;;;;9.27;0.80;;;23.40;92.60;;;;;;5040653;28;20184;-59
2022/06/12 13:00:36;;;;;;;9.30;0.90;;;23.30;90.90;;;;;;5039846;28;20483;-56
2022/06/12 13:03:23;;;;;;;7.10;0.80;;;23.20;91.50;;;;;;5024609;28;20394;-57
2022/06/12 13:05:48;;;;;;;5.85;1.00;;;23.20;91.30;;;;;;5062353;28;20364;-57
2022/06/12 13:08:54;;;;;;;5.47;0.68;;;23.10;91.00;;;;;;5046524;28;20094;-57
2022/06/12 13:11:42;;;;;;;4.43;0.70;;;23.10;89.70;;;;;;5060413;28;20094;-57
2022/06/12 13:14:32;;;;;;;5.07;0.90;;;23.00;87.90;;;;;;5051353;28;20495;-58
2022/06/12 13:17:31;;;;;;;6.10;0.82;;;22.90;89.30;;;;;;5059888;28;20045;-57
2022/06/12 13:20:06;;;;;;;8.00;1.33;;;23.00;90.90;;;;;;5020959;28;20049;-57
2022/06/12 13:22:53;;;;;;;9.35;1.70;;;22.90;93.50;;;;;;5042301;28;20041;-57
2022/06/12 13:25:24;;;;;;;9.85;2.08;;;22.80;95.90;;;;;;5052443;28;20390;-57
2022/06/12 13:27:55;;;;;;;16.58;3.72;;;22.70;97.70;;;;;;5044310;28;20729;-57
2022/06/12 13:30:26;;;;;;;17.33;2.88;;;22.70;99.70;;;;;;5049054;28;20744;-57
2022/06/12 13:32:52;;;;;;;18.88;3.83;;;22.50;99.90;;;;;;5049526;28;20044;-58
2022/06/12 13:35:32;;;;;;;30.90;4.18;;;22.40;99.90;;;;;;5049751;28;20037;-57
2022/06/12 13:38:04;;;;;;;30.48;6.20;;;22.30;99.90;;;;;;5054415;28;20067;-55
2022/06/12 13:40:40;;;;;;;17.85;3.55;;;22.20;99.90;;;;;;5050654;28;20080;-57